sensor_id;sensor_type;location;lat;lon;timestamp;P1;durP1;ratioP1;P2;durP2;ratioP2
46505;SDS011;32220;49.808;9.968;2022-10-31T00:01:29;6.83;;;5.47;;
46505;SDS011;32220;49.808;9.968;2022-10-31T00:03:59;8.50;;;6.23;;
46505;SDS011;32220;49.808;9.968;2022-10-31T00:06:27;11.43;;;7.53;;
46505;SDS011;32220;49.808;9.968;2022-10-31T00:08:57;6.77;;;6.07;;
46505;SDS011;32220;49.808;9.968;2022-10-31T00:11:27;6.37;;;5.77;;
46505;SDS011;32220;49.808;9.968;2022-10-31T00:13:56;7.17;;;6.33;;
46505;SDS011;32220;49.808;9.968;2022-10-31T00:16:24;6.27;;;5.67;;
46505;SDS011;32220;49.808;9.968;2022-10-31T00:18:53;6.87;;;6.17;;
46505;SDS011;32220;49.808;9.968;2022-10-31T00:21:23;9.73;;;7.73;;
46505;SDS011;32220;49.808;9.968;2022-10-31T00:23:51;7.70;;;5.50;;
46505;SDS011;32220;49.808;9.968;2022-10-31T00:26:20;6.87;;;6.17;;
46505;SDS011;32220;49.808;9.968;2022-10-31T00:28:48;6.50;;;5.90;;
46505;SDS011;32220;49.808;9.968;2022-10-31T00:31:16;9.40;;;7.43;;
46505;SDS011;32220;49.808;9.968;2022-10-31T00:33:44;7.27;;;6.30;;
46505;SDS011;32220;49.808;9.968;2022-10-31T00:36:12;7.80;;;6.40;;
46505;SDS011;32220;49.808;9.968;2022-10-31T00:38:41;7.07;;;6.10;;
46505;SDS011;32220;49.808;9.968;2022-10-31T00:41:09;7.20;;;6.50;;
46505;SDS011;32220;49.808;9.968;2022-10-31T00:43:42;12.43;;;8.10;;
46505;SDS011;32220;49.808;9.968;2022-10-31T00:46:10;11.90;;;9.20;;
46505;SDS011;32220;49.808;9.968;2022-10-31T00:48:38;31.90;;;22.77;;
46505;SDS011;32220;49.808;9.968;2022-10-31T00:51:05;31.37;;;24.00;;
46505;SDS011;32220;49.808;9.968;2022-10-31T00:53:33;47.93;;;35.13;;
46505;SDS011;32220;49.808;9.968;2022-10-31T00:56:01;40.80;;;32.33;;
46505;SDS011;32220;49.808;9.968;2022-10-31T00:58:30;52.03;;;38.70;;
46505;SDS011;32220;49.808;9.968;2022-10-31T01:00:59;49.53;;;39.63;;
46505;SDS011;32220;49.808;9.968;2022-10-31T01:03:27;53.73;;;41.57;;
46505;SDS011;32220;49.808;9.968;2022-10-31T01:06:00;58.23;;;43.13;;
46505;SDS011;32220;49.808;9.968;2022-10-31T01:08:32;45.17;;;31.07;;
46505;SDS011;32220;49.808;9.968;2022-10-31T01:11:01;32.60;;;23.07;;
46505;SDS011;32220;49.808;9.968;2022-10-31T01:13:32;25.37;;;18.00;;
46505;SDS011;32220;49.808;9.968;2022-10-31T01:16:03;17.43;;;13.50;;
46505;SDS011;32220;49.808;9.968;2022-10-31T01:18:32;18.50;;;12.87;;
46505;SDS011;32220;49.808;9.968;2022-10-31T01:21:01;27.07;;;14.43;;
46505;SDS011;32220;49.808;9.968;2022-10-31T01:23:30;32.27;;;19.93;;
46505;SDS011;32220;49.808;9.968;2022-10-31T01:26:03;40.93;;;26.43;;
46505;SDS011;32220;49.808;9.968;2022-10-31T01:28:33;41.43;;;27.13;;
46505;SDS011;32220;49.808;9.968;2022-10-31T01:31:04;36.77;;;23.90;;
46505;SDS011;32220;49.808;9.968;2022-10-31T01:33:34;36.70;;;24.90;;
46505;SDS011;32220;49.808;9.968;2022-10-31T01:36:10;39.17;;;23.23;;
46505;SDS011;32220;49.808;9.968;2022-10-31T01:38:39;49.30;;;31.60;;
46505;SDS011;32220;49.808;9.968;2022-10-31T01:41:07;50.53;;;34.57;;
46505;SDS011;32220;49.808;9.968;2022-10-31T01:43:43;50.37;;;32.07;;
46505;SDS011;32220;49.808;9.968;2022-10-31T01:46:15;42.07;;;27.57;;
46505;SDS011;32220;49.808;9.968;2022-10-31T01:48:45;30.07;;;20.87;;
46505;SDS011;32220;49.808;9.968;2022-10-31T01:51:13;28.20;;;19.33;;
46505;SDS011;32220;49.808;9.968;2022-10-31T01:53:43;26.17;;;19.73;;
46505;SDS011;32220;49.808;9.968;2022-10-31T01:56:13;24.87;;;17.90;;
46505;SDS011;32220;49.808;9.968;2022-10-31T01:58:42;31.70;;;22.20;;
46505;SDS011;32220;49.808;9.968;2022-10-31T02:01:17;49.53;;;32.63;;
46505;SDS011;32220;49.808;9.968;2022-10-31T02:03:45;60.60;;;38.70;;
46505;SDS011;32220;49.808;9.968;2022-10-31T02:06:17;56.73;;;38.00;;
46505;SDS011;32220;49.808;9.968;2022-10-31T02:08:55;54.27;;;34.87;;
46505;SDS011;32220;49.808;9.968;2022-10-31T02:11:24;53.80;;;37.07;;
46505;SDS011;32220;49.808;9.968;2022-10-31T02:13:52;56.93;;;38.20;;
46505;SDS011;32220;49.808;9.968;2022-10-31T02:16:23;54.03;;;36.27;;
46505;SDS011;32220;49.808;9.968;2022-10-31T02:18:52;50.53;;;34.83;;
46505;SDS011;32220;49.808;9.968;2022-10-31T02:21:22;43.87;;;28.87;;
46505;SDS011;32220;49.808;9.968;2022-10-31T02:27:16;31.20;;;19.87;;
46505;SDS011;32220;49.808;9.968;2022-10-31T02:30:07;27.97;;;16.80;;
46505;SDS011;32220;49.808;9.968;2022-10-31T02:32:49;19.73;;;14.93;;
46505;SDS011;32220;49.808;9.968;2022-10-31T02:35:33;14.83;;;11.40;;
46505;SDS011;32220;49.808;9.968;2022-10-31T02:38:21;10.40;;;8.77;;
46505;SDS011;32220;49.808;9.968;2022-10-31T02:41:00;9.53;;;7.33;;
46505;SDS011;32220;49.808;9.968;2022-10-31T02:43:40;7.10;;;5.90;;
46505;SDS011;32220;49.808;9.968;2022-10-31T09:20:26;7.23;;;6.53;;
46505;SDS011;32220;49.808;9.968;2022-10-31T09:22:55;8.13;;;7.27;;
46505;SDS011;32220;49.808;9.968;2022-10-31T09:25:23;6.47;;;5.87;;
46505;SDS011;32220;49.808;9.968;2022-10-31T09:28:11;9.93;;;7.23;;
46505;SDS011;32220;49.808;9.968;2022-10-31T09:30:41;7.27;;;6.60;;
46505;SDS011;32220;49.808;9.968;2022-10-31T09:33:10;6.43;;;5.83;;
46505;SDS011;32220;49.808;9.968;2022-10-31T09:35:44;6.63;;;5.83;;
46505;SDS011;32220;49.808;9.968;2022-10-31T09:38:12;6.60;;;6.07;;
46505;SDS011;32220;49.808;9.968;2022-10-31T09:40:42;6.57;;;5.97;;
46505;SDS011;32220;49.808;9.968;2022-10-31T09:43:13;6.20;;;5.60;;
46505;SDS011;32220;49.808;9.968;2022-10-31T09:45:50;6.33;;;5.83;;
46505;SDS011;32220;49.808;9.968;2022-10-31T09:48:45;8.40;;;7.60;;
46505;SDS011;32220;49.808;9.968;2022-10-31T09:51:37;7.37;;;6.20;;
46505;SDS011;32220;49.808;9.968;2022-10-31T09:54:15;5.77;;;5.17;;
46505;SDS011;32220;49.808;9.968;2022-10-31T09:56:46;6.77;;;6.17;;
46505;SDS011;32220;49.808;9.968;2022-10-31T09:59:16;6.30;;;5.70;;
46505;SDS011;32220;49.808;9.968;2022-10-31T10:01:54;8.27;;;6.70;;
46505;SDS011;32220;49.808;9.968;2022-10-31T10:04:30;8.00;;;6.43;;
46505;SDS011;32220;49.808;9.968;2022-10-31T10:07:13;6.63;;;6.03;;
46505;SDS011;32220;49.808;9.968;2022-10-31T10:10:12;6.97;;;6.37;;
46505;SDS011;32220;49.808;9.968;2022-10-31T10:13:19;6.67;;;5.97;;
46505;SDS011;32220;49.808;9.968;2022-10-31T10:16:07;7.00;;;5.63;;
46505;SDS011;32220;49.808;9.968;2022-10-31T10:18:46;7.23;;;6.53;;
46505;SDS011;32220;49.808;9.968;2022-10-31T10:21:26;6.70;;;6.10;;
46505;SDS011;32220;49.808;9.968;2022-10-31T10:24:11;6.70;;;6.00;;
46505;SDS011;32220;49.808;9.968;2022-10-31T10:26:52;10.23;;;6.97;;
46505;SDS011;32220;49.808;9.968;2022-10-31T10:29:32;6.40;;;5.80;;
46505;SDS011;32220;49.808;9.968;2022-10-31T10:32:05;6.93;;;5.97;;
46505;SDS011;32220;49.808;9.968;2022-10-31T10:34:41;7.37;;;6.77;;
46505;SDS011;32220;49.808;9.968;2022-10-31T10:37:16;8.13;;;6.90;;
46505;SDS011;32220;49.808;9.968;2022-10-31T10:39:52;7.67;;;6.87;;
46505;SDS011;32220;49.808;9.968;2022-10-31T10:42:23;7.23;;;6.17;;
46505;SDS011;32220;49.808;9.968;2022-10-31T10:45:15;7.90;;;7.10;;
46505;SDS011;32220;49.808;9.968;2022-10-31T10:48:05;8.00;;;7.00;;
46505;SDS011;32220;49.808;9.968;2022-10-31T10:50:39;7.63;;;6.93;;
46505;SDS011;32220;49.808;9.968;2022-10-31T10:53:15;7.93;;;7.23;;
46505;SDS011;32220;49.808;9.968;2022-10-31T10:56:00;7.63;;;6.93;;
46505;SDS011;32220;49.808;9.968;2022-10-31T10:58:37;7.83;;;7.03;;
46505;SDS011;32220;49.808;9.968;2022-10-31T11:01:08;8.20;;;7.40;;
46505;SDS011;32220;49.808;9.968;2022-10-31T11:03:38;8.27;;;7.47;;
46505;SDS011;32220;49.808;9.968;2022-10-31T11:06:15;8.77;;;7.40;;
46505;SDS011;32220;49.808;9.968;2022-10-31T11:08:47;8.27;;;7.20;;
46505;SDS011;32220;49.808;9.968;2022-10-31T11:11:22;7.77;;;7.07;;
46505;SDS011;32220;49.808;9.968;2022-10-31T11:13:55;8.23;;;7.43;;
46505;SDS011;32220;49.808;9.968;2022-10-31T11:16:28;8.23;;;7.53;;
46505;SDS011;32220;49.808;9.968;2022-10-31T11:19:06;8.33;;;7.10;;
46505;SDS011;32220;49.808;9.968;2022-10-31T11:21:36;8.63;;;7.73;;
46505;SDS011;32220;49.808;9.968;2022-10-31T11:24:03;9.37;;;8.30;;
46505;SDS011;32220;49.808;9.968;2022-10-31T11:26:43;7.50;;;6.90;;
46505;SDS011;32220;49.808;9.968;2022-10-31T11:29:14;9.07;;;7.37;;
46505;SDS011;32220;49.808;9.968;2022-10-31T11:31:44;7.77;;;7.07;;
46505;SDS011;32220;49.808;9.968;2022-10-31T11:34:15;7.47;;;6.77;;
46505;SDS011;32220;49.808;9.968;2022-10-31T11:36:52;7.63;;;6.70;;
46505;SDS011;32220;49.808;9.968;2022-10-31T11:39:20;8.73;;;7.93;;
46505;SDS011;32220;49.808;9.968;2022-10-31T11:41:52;9.13;;;8.30;;
46505;SDS011;32220;49.808;9.968;2022-10-31T11:44:22;9.73;;;8.83;;
46505;SDS011;32220;49.808;9.968;2022-10-31T11:46:54;9.10;;;8.20;;
46505;SDS011;32220;49.808;9.968;2022-10-31T11:49:31;7.90;;;7.17;;
46505;SDS011;32220;49.808;9.968;2022-10-31T11:52:02;8.83;;;8.00;;
46505;SDS011;32220;49.808;9.968;2022-10-31T11:54:34;10.77;;;8.90;;
46505;SDS011;32220;49.808;9.968;2022-10-31T11:57:21;8.73;;;7.83;;
46505;SDS011;32220;49.808;9.968;2022-10-31T11:59:51;8.53;;;7.67;;
46505;SDS011;32220;49.808;9.968;2022-10-31T12:02:20;9.13;;;8.23;;
46505;SDS011;32220;49.808;9.968;2022-10-31T12:04:50;7.87;;;7.17;;
46505;SDS011;32220;49.808;9.968;2022-10-31T12:07:23;8.27;;;7.47;;
46505;SDS011;32220;49.808;9.968;2022-10-31T12:09:51;9.77;;;8.87;;
46505;SDS011;32220;49.808;9.968;2022-10-31T12:12:26;9.43;;;8.43;;
46505;SDS011;32220;49.808;9.968;2022-10-31T12:15:15;9.87;;;8.97;;
46505;SDS011;32220;49.808;9.968;2022-10-31T12:17:55;9.57;;;8.50;;
46505;SDS011;32220;49.808;9.968;2022-10-31T12:20:35;8.37;;;7.57;;
46505;SDS011;32220;49.808;9.968;2022-10-31T12:23:15;8.17;;;7.37;;
46505;SDS011;32220;49.808;9.968;2022-10-31T12:25:50;9.13;;;7.83;;
46505;SDS011;32220;49.808;9.968;2022-10-31T12:28:37;9.13;;;8.23;;
46505;SDS011;32220;49.808;9.968;2022-10-31T12:31:26;9.57;;;8.50;;
46505;SDS011;32220;49.808;9.968;2022-10-31T12:34:11;10.30;;;8.90;;
46505;SDS011;32220;49.808;9.968;2022-10-31T12:36:57;9.13;;;7.70;;
46505;SDS011;32220;49.808;9.968;2022-10-31T12:39:35;11.40;;;9.97;;
46505;SDS011;32220;49.808;9.968;2022-10-31T12:42:14;8.70;;;7.80;;
46505;SDS011;32220;49.808;9.968;2022-10-31T12:45:05;9.47;;;8.33;;
46505;SDS011;32220;49.808;9.968;2022-10-31T12:47:50;8.63;;;7.77;;
46505;SDS011;32220;49.808;9.968;2022-10-31T12:50:29;10.10;;;9.20;;
46505;SDS011;32220;49.808;9.968;2022-10-31T12:53:12;9.70;;;8.47;;
46505;SDS011;32220;49.808;9.968;2022-10-31T12:55:55;9.37;;;8.47;;
46505;SDS011;32220;49.808;9.968;2022-10-31T12:58:36;9.30;;;8.40;;
46505;SDS011;32220;49.808;9.968;2022-10-31T13:01:10;10.43;;;9.43;;
46505;SDS011;32220;49.808;9.968;2022-10-31T13:03:44;9.77;;;8.87;;
46505;SDS011;32220;49.808;9.968;2022-10-31T13:06:16;9.40;;;8.47;;
46505;SDS011;32220;49.808;9.968;2022-10-31T13:08:47;8.87;;;8.07;;
46505;SDS011;32220;49.808;9.968;2022-10-31T13:11:21;9.17;;;8.27;;
46505;SDS011;32220;49.808;9.968;2022-10-31T13:13:59;9.50;;;8.60;;
46505;SDS011;32220;49.808;9.968;2022-10-31T13:16:34;9.80;;;8.80;;
46505;SDS011;32220;49.808;9.968;2022-10-31T13:19:08;9.03;;;8.13;;
46505;SDS011;32220;49.808;9.968;2022-10-31T13:21:42;9.40;;;8.40;;
46505;SDS011;32220;49.808;9.968;2022-10-31T13:24:21;8.97;;;8.17;;
46505;SDS011;32220;49.808;9.968;2022-10-31T13:26:54;9.07;;;8.27;;
46505;SDS011;32220;49.808;9.968;2022-10-31T13:29:26;10.37;;;8.30;;
46505;SDS011;32220;49.808;9.968;2022-10-31T13:31:58;10.43;;;9.17;;
46505;SDS011;32220;49.808;9.968;2022-10-31T13:34:28;8.93;;;8.13;;
46505;SDS011;32220;49.808;9.968;2022-10-31T13:37:02;8.37;;;7.47;;
46505;SDS011;32220;49.808;9.968;2022-10-31T13:42:37;8.80;;;7.90;;
46505;SDS011;32220;49.808;9.968;2022-10-31T13:45:13;9.17;;;8.33;;
46505;SDS011;32220;49.808;9.968;2022-10-31T13:47:56;8.23;;;7.40;;
46505;SDS011;32220;49.808;9.968;2022-10-31T13:50:26;10.47;;;9.47;;
46505;SDS011;32220;49.808;9.968;2022-10-31T13:53:03;9.97;;;8.93;;
46505;SDS011;32220;49.808;9.968;2022-10-31T13:55:39;8.00;;;7.10;;
46505;SDS011;32220;49.808;9.968;2022-10-31T13:58:24;8.00;;;7.30;;
46505;SDS011;32220;49.808;9.968;2022-10-31T14:03:57;8.90;;;8.10;;
46505;SDS011;32220;49.808;9.968;2022-10-31T14:06:36;7.67;;;6.90;;
46505;SDS011;32220;49.808;9.968;2022-10-31T14:09:16;8.20;;;7.47;;
46505;SDS011;32220;49.808;9.968;2022-10-31T14:11:47;7.40;;;6.70;;
46505;SDS011;32220;49.808;9.968;2022-10-31T14:14:17;10.37;;;8.17;;
46505;SDS011;32220;49.808;9.968;2022-10-31T14:16:52;8.37;;;7.63;;
46505;SDS011;32220;49.808;9.968;2022-10-31T14:19:23;8.87;;;7.97;;
46505;SDS011;32220;49.808;9.968;2022-10-31T14:21:53;7.40;;;6.70;;
46505;SDS011;32220;49.808;9.968;2022-10-31T14:24:31;8.20;;;7.50;;
46505;SDS011;32220;49.808;9.968;2022-10-31T14:27:04;10.43;;;9.40;;
46505;SDS011;32220;49.808;9.968;2022-10-31T14:30:13;9.47;;;8.57;;
46505;SDS011;32220;49.808;9.968;2022-10-31T14:32:42;8.60;;;7.80;;
46505;SDS011;32220;49.808;9.968;2022-10-31T14:35:14;9.53;;;8.53;;
46505;SDS011;32220;49.808;9.968;2022-10-31T14:41:09;8.40;;;7.23;;
46505;SDS011;32220;49.808;9.968;2022-10-31T14:47:12;7.70;;;6.90;;
46505;SDS011;32220;49.808;9.968;2022-10-31T14:50:05;11.77;;;8.37;;
46505;SDS011;32220;49.808;9.968;2022-10-31T14:52:45;11.07;;;7.87;;
46505;SDS011;32220;49.808;9.968;2022-10-31T14:55:15;9.43;;;8.47;;
46505;SDS011;32220;49.808;9.968;2022-10-31T14:57:48;10.07;;;9.07;;
46505;SDS011;32220;49.808;9.968;2022-10-31T15:00:18;10.07;;;8.80;;
46505;SDS011;32220;49.808;9.968;2022-10-31T15:02:51;7.80;;;7.10;;
46505;SDS011;32220;49.808;9.968;2022-10-31T15:05:25;8.23;;;7.07;;
46505;SDS011;32220;49.808;9.968;2022-10-31T15:07:56;7.87;;;6.87;;
46505;SDS011;32220;49.808;9.968;2022-10-31T15:10:26;7.87;;;7.03;;
46505;SDS011;32220;49.808;9.968;2022-10-31T15:12:55;8.97;;;6.97;;
46505;SDS011;32220;49.808;9.968;2022-10-31T15:15:24;7.40;;;6.80;;
46505;SDS011;32220;49.808;9.968;2022-10-31T15:17:53;10.17;;;8.43;;
46505;SDS011;32220;49.808;9.968;2022-10-31T15:20:25;8.93;;;8.03;;
46505;SDS011;32220;49.808;9.968;2022-10-31T15:22:56;10.27;;;8.93;;
46505;SDS011;32220;49.808;9.968;2022-10-31T15:25:27;8.63;;;7.77;;
46505;SDS011;32220;49.808;9.968;2022-10-31T15:27:58;8.43;;;7.63;;
46505;SDS011;32220;49.808;9.968;2022-10-31T15:30:26;10.23;;;9.17;;
46505;SDS011;32220;49.808;9.968;2022-10-31T15:32:57;8.67;;;7.80;;
46505;SDS011;32220;49.808;9.968;2022-10-31T15:35:25;8.47;;;7.57;;
46505;SDS011;32220;49.808;9.968;2022-10-31T15:37:55;8.93;;;7.87;;
46505;SDS011;32220;49.808;9.968;2022-10-31T15:40:27;12.43;;;8.53;;
46505;SDS011;32220;49.808;9.968;2022-10-31T15:42:55;7.90;;;7.20;;
46505;SDS011;32220;49.808;9.968;2022-10-31T15:45:25;8.40;;;7.53;;
46505;SDS011;32220;49.808;9.968;2022-10-31T15:47:55;8.70;;;7.90;;
46505;SDS011;32220;49.808;9.968;2022-10-31T15:50:27;11.23;;;8.63;;
46505;SDS011;32220;49.808;9.968;2022-10-31T15:52:58;9.10;;;8.20;;
46505;SDS011;32220;49.808;9.968;2022-10-31T15:55:28;9.13;;;8.00;;
46505;SDS011;32220;49.808;9.968;2022-10-31T15:58:00;9.23;;;7.57;;
46505;SDS011;32220;49.808;9.968;2022-10-31T16:00:31;8.87;;;7.20;;
46505;SDS011;32220;49.808;9.968;2022-10-31T16:03:04;10.07;;;9.07;;
46505;SDS011;32220;49.808;9.968;2022-10-31T16:05:34;10.67;;;8.97;;
46505;SDS011;32220;49.808;9.968;2022-10-31T16:11:15;11.77;;;9.20;;
46505;SDS011;32220;49.808;9.968;2022-10-31T16:13:54;12.37;;;9.33;;
46505;SDS011;32220;49.808;9.968;2022-10-31T16:16:24;12.07;;;10.30;;
46505;SDS011;32220;49.808;9.968;2022-10-31T16:18:55;9.67;;;8.67;;
46505;SDS011;32220;49.808;9.968;2022-10-31T16:21:24;11.20;;;9.70;;
46505;SDS011;32220;49.808;9.968;2022-10-31T16:23:56;11.33;;;9.10;;
46505;SDS011;32220;49.808;9.968;2022-10-31T16:26:27;9.80;;;8.37;;
46505;SDS011;32220;49.808;9.968;2022-10-31T16:28:56;9.83;;;8.73;;
46505;SDS011;32220;49.808;9.968;2022-10-31T16:31:26;11.43;;;10.00;;
46505;SDS011;32220;49.808;9.968;2022-10-31T16:34:03;11.80;;;10.43;;
46505;SDS011;32220;49.808;9.968;2022-10-31T16:36:33;18.27;;;14.40;;
46505;SDS011;32220;49.808;9.968;2022-10-31T16:39:05;11.07;;;9.90;;
46505;SDS011;32220;49.808;9.968;2022-10-31T16:41:35;13.60;;;12.00;;
46505;SDS011;32220;49.808;9.968;2022-10-31T16:44:19;13.77;;;11.40;;
46505;SDS011;32220;49.808;9.968;2022-10-31T16:46:51;11.23;;;10.03;;
46505;SDS011;32220;49.808;9.968;2022-10-31T16:49:35;10.47;;;9.37;;
46505;SDS011;32220;49.808;9.968;2022-10-31T16:52:02;9.73;;;8.60;;
46505;SDS011;32220;49.808;9.968;2022-10-31T16:54:32;8.77;;;7.87;;
46505;SDS011;32220;49.808;9.968;2022-10-31T16:57:00;9.53;;;8.53;;
46505;SDS011;32220;49.808;9.968;2022-10-31T16:59:29;12.47;;;10.00;;
46505;SDS011;32220;49.808;9.968;2022-10-31T17:01:59;10.60;;;9.40;;
46505;SDS011;32220;49.808;9.968;2022-10-31T17:04:28;14.50;;;11.90;;
46505;SDS011;32220;49.808;9.968;2022-10-31T17:06:55;10.07;;;9.07;;
46505;SDS011;32220;49.808;9.968;2022-10-31T17:09:26;9.90;;;8.83;;
46505;SDS011;32220;49.808;9.968;2022-10-31T17:11:55;9.20;;;8.30;;
46505;SDS011;32220;49.808;9.968;2022-10-31T17:14:26;9.87;;;8.70;;
46505;SDS011;32220;49.808;9.968;2022-10-31T17:16:54;9.80;;;8.87;;
46505;SDS011;32220;49.808;9.968;2022-10-31T17:19:21;9.50;;;8.60;;
46505;SDS011;32220;49.808;9.968;2022-10-31T17:21:49;13.27;;;11.87;;
46505;SDS011;32220;49.808;9.968;2022-10-31T17:24:16;13.00;;;11.70;;
46505;SDS011;32220;49.808;9.968;2022-10-31T17:26:44;12.03;;;10.43;;
46505;SDS011;32220;49.808;9.968;2022-10-31T17:29:13;11.20;;;10.10;;
46505;SDS011;32220;49.808;9.968;2022-10-31T17:31:42;9.57;;;8.60;;
46505;SDS011;32220;49.808;9.968;2022-10-31T17:34:10;8.77;;;7.57;;
46505;SDS011;32220;49.808;9.968;2022-10-31T17:36:37;8.10;;;7.40;;
46505;SDS011;32220;49.808;9.968;2022-10-31T17:39:05;8.20;;;7.40;;
46505;SDS011;32220;49.808;9.968;2022-10-31T17:41:34;7.63;;;6.87;;
46505;SDS011;32220;49.808;9.968;2022-10-31T17:44:02;7.20;;;6.40;;
46505;SDS011;32220;49.808;9.968;2022-10-31T17:46:31;6.90;;;6.23;;
46505;SDS011;32220;49.808;9.968;2022-10-31T17:48:59;10.80;;;9.53;;
46505;SDS011;32220;49.808;9.968;2022-10-31T17:51:26;12.77;;;11.47;;
46505;SDS011;32220;49.808;9.968;2022-10-31T17:53:54;13.07;;;10.77;;
46505;SDS011;32220;49.808;9.968;2022-10-31T17:56:24;10.00;;;9.07;;
46505;SDS011;32220;49.808;9.968;2022-10-31T17:58:51;8.83;;;8.00;;
46505;SDS011;32220;49.808;9.968;2022-10-31T18:01:22;7.67;;;6.97;;
46505;SDS011;32220;49.808;9.968;2022-10-31T18:03:52;10.57;;;9.57;;
46505;SDS011;32220;49.808;9.968;2022-10-31T18:06:20;12.53;;;11.23;;
46505;SDS011;32220;49.808;9.968;2022-10-31T18:08:47;9.97;;;9.00;;
46505;SDS011;32220;49.808;9.968;2022-10-31T18:11:15;10.00;;;8.90;;
46505;SDS011;32220;49.808;9.968;2022-10-31T18:13:45;13.60;;;12.20;;
46505;SDS011;32220;49.808;9.968;2022-10-31T18:16:13;14.60;;;12.90;;
46505;SDS011;32220;49.808;9.968;2022-10-31T18:18:42;15.10;;;13.50;;
46505;SDS011;32220;49.808;9.968;2022-10-31T18:21:11;17.00;;;14.83;;
46505;SDS011;32220;49.808;9.968;2022-10-31T18:23:39;13.57;;;12.20;;
46505;SDS011;32220;49.808;9.968;2022-10-31T18:26:06;18.33;;;14.63;;
46505;SDS011;32220;49.808;9.968;2022-10-31T18:28:35;14.63;;;13.13;;
46505;SDS011;32220;49.808;9.968;2022-10-31T18:31:03;12.63;;;11.43;;
46505;SDS011;32220;49.808;9.968;2022-10-31T18:33:31;10.90;;;9.80;;
46505;SDS011;32220;49.808;9.968;2022-10-31T18:36:02;10.90;;;9.80;;
46505;SDS011;32220;49.808;9.968;2022-10-31T18:38:32;9.60;;;8.53;;
46505;SDS011;32220;49.808;9.968;2022-10-31T18:40:59;9.53;;;8.67;;
46505;SDS011;32220;49.808;9.968;2022-10-31T18:43:27;10.90;;;9.77;;
46505;SDS011;32220;49.808;9.968;2022-10-31T18:45:55;10.23;;;9.23;;
46505;SDS011;32220;49.808;9.968;2022-10-31T18:48:27;11.77;;;10.57;;
46505;SDS011;32220;49.808;9.968;2022-10-31T18:50:56;11.57;;;10.43;;
46505;SDS011;32220;49.808;9.968;2022-10-31T18:53:24;12.37;;;11.17;;
